Time;durP1;ratioP1;P1;durP2;ratioP2;P2;SDS_P1;SDS_P2;PMS_P1;PMS_P2;Temp;Humidity;BMP_temperature;BMP_pressure;BME280_temperature;BME280_humidity;BME280_pressure;Samples;Min_cycle;Max_cycle;Signal;HPM_P1;HPM_P2
2023/05/03 00:01:50;;;;;;;6.18;2.40;;;;;;;;;;5069546;28;20348;-72
2023/05/03 00:04:17;;;;;;;4.57;2.47;;;;;;;;;;5071274;28;20131;-72
2023/05/03 00:06:43;;;;;;;6.88;2.60;;;;;;;;;;5072507;28;20109;-72
2023/05/03 00:09:10;;;;;;;12.32;2.83;;;;;;;;;;5069625;28;20078;-73
2023/05/03 00:11:36;;;;;;;6.88;2.85;;;;;;;;;;5070224;28;20070;-73
2023/05/03 00:14:02;;;;;;;7.10;2.47;;;;;;;;;;5075830;28;20450;-73
2023/05/03 00:16:28;;;;;;;5.13;2.33;;;;;;;;;;5069329;28;20091;-73
2023/05/03 00:18:55;;;;;;;8.68;2.83;;;;;;;;;;5069512;28;20407;-73
2023/05/03 00:21:21;;;;;;;8.30;2.30;;;;;;;;;;5067273;28;20044;-72
2023/05/03 00:23:47;;;;;;;12.25;3.08;;;;;;;;;;5070938;28;20054;-73
2023/05/03 00:26:13;;;;;;;7.30;1.98;;;;;;;;;;5071263;28;20128;-73
2023/05/03 00:28:39;;;;;;;7.25;2.85;;;;;;;;;;5073278;28;20136;-73
2023/05/03 00:31:07;;;;;;;9.70;2.33;;;;;;;;;;5070055;28;20082;-73
2023/05/03 00:33:34;;;;;;;6.68;2.58;;;;;;;;;;5071737;28;20507;-73
2023/05/03 00:36:06;;;;;;;7.03;2.33;;;;;;;;;;5071141;27;20036;-73
2023/05/03 00:38:32;;;;;;;6.28;2.35;;;;;;;;;;5074468;28;20150;-73
2023/05/03 00:40:58;;;;;;;6.60;2.42;;;;;;;;;;5071410;28;20135;-73
2023/05/03 00:43:24;;;;;;;5.88;2.67;;;;;;;;;;5075489;28;20105;-73
2023/05/03 00:45:50;;;;;;;3.78;2.13;;;;;;;;;;5071522;28;20063;-73
2023/05/03 00:48:17;;;;;;;7.57;2.33;;;;;;;;;;5070171;28;20080;-73
2023/05/03 00:50:44;;;;;;;5.80;2.40;;;;;;;;;;5063126;28;20036;-73
2023/05/03 00:53:10;;;;;;;3.95;2.10;;;;;;;;;;5072892;28;20054;-73
2023/05/03 00:55:37;;;;;;;6.82;2.40;;;;;;;;;;5089873;27;20105;-73
2023/05/03 00:58:03;;;;;;;5.43;2.58;;;;;;;;;;5071150;27;20609;-73
2023/05/03 01:00:29;;;;;;;11.10;2.88;;;;;;;;;;5070052;28;20062;-73
2023/05/03 01:02:55;;;;;;;8.60;2.50;;;;;;;;;;5062521;28;20048;-73
2023/05/03 01:05:22;;;;;;;6.75;3.03;;;;;;;;;;5070941;28;20488;-73
2023/05/03 01:08:03;;;;;;;7.55;2.30;;;;;;;;;;5072756;28;20051;-73
2023/05/03 01:10:37;;;;;;;6.95;2.38;;;;;;;;;;5076321;28;20052;-73
2023/05/03 01:13:10;;;;;;;8.27;2.40;;;;;;;;;;5087528;27;20535;-73
2023/05/03 01:15:36;;;;;;;8.10;2.50;;;;;;;;;;5073497;28;20043;-73
2023/05/03 01:18:07;;;;;;;6.43;2.63;;;;;;;;;;5069784;28;20104;-73
2023/05/03 01:20:34;;;;;;;10.15;2.88;;;;;;;;;;5070524;28;20047;-73
2023/05/03 01:23:05;;;;;;;8.57;3.00;;;;;;;;;;5071152;28;20098;-73
2023/05/03 01:25:31;;;;;;;8.40;2.80;;;;;;;;;;5071742;28;20080;-73
2023/05/03 01:27:57;;;;;;;6.13;2.63;;;;;;;;;;5089773;28;20036;-72
2023/05/03 01:30:26;;;;;;;8.98;2.42;;;;;;;;;;5069630;28;20059;-73
2023/05/03 01:32:58;;;;;;;5.00;2.63;;;;;;;;;;5069837;28;20047;-73
2023/05/03 01:35:29;;;;;;;8.50;3.38;;;;;;;;;;5067054;28;20535;-73
2023/05/03 01:37:56;;;;;;;5.65;2.47;;;;;;;;;;5090846;28;20086;-73
2023/05/03 01:40:23;;;;;;;7.22;2.58;;;;;;;;;;5070441;28;20044;-73
2023/05/03 01:42:50;;;;;;;8.13;2.63;;;;;;;;;;5070315;27;20384;-73
2023/05/03 01:45:16;;;;;;;6.60;2.67;;;;;;;;;;5070125;28;20040;-73
2023/05/03 01:47:42;;;;;;;5.82;2.20;;;;;;;;;;5073638;28;20372;-73
2023/05/03 01:50:08;;;;;;;5.65;2.60;;;;;;;;;;5074774;28;20431;-73
2023/05/03 01:52:35;;;;;;;7.38;2.42;;;;;;;;;;5085198;28;20547;-73
2023/05/03 01:55:01;;;;;;;9.10;2.75;;;;;;;;;;5071870;28;20040;-73
2023/05/03 01:57:27;;;;;;;4.88;2.20;;;;;;;;;;5070862;28;20074;-73
2023/05/03 01:59:53;;;;;;;6.63;2.25;;;;;;;;;;5058717;28;20158;-73
2023/05/03 02:02:19;;;;;;;8.82;2.42;;;;;;;;;;5070335;28;20048;-73
2023/05/03 02:04:46;;;;;;;6.20;2.22;;;;;;;;;;5088519;28;20125;-73
2023/05/03 02:07:12;;;;;;;3.88;2.45;;;;;;;;;;5090708;28;20051;-73
2023/05/03 02:09:38;;;;;;;6.65;2.92;;;;;;;;;;5072474;28;20076;-73
2023/05/03 02:12:04;;;;;;;6.75;2.60;;;;;;;;;;5070355;28;20138;-73
2023/05/03 02:14:31;;;;;;;6.28;2.42;;;;;;;;;;5070475;27;20055;-73
2023/05/03 02:16:58;;;;;;;3.78;2.30;;;;;;;;;;5055562;27;20928;-73
2023/05/03 02:19:24;;;;;;;7.03;2.60;;;;;;;;;;5074405;28;20048;-73
2023/05/03 02:21:50;;;;;;;5.63;2.20;;;;;;;;;;5074312;28;20497;-72
2023/05/03 02:24:18;;;;;;;8.07;2.53;;;;;;;;;;5073775;28;20044;-72
2023/05/03 02:26:44;;;;;;;7.50;2.40;;;;;;;;;;5074771;28;20047;-72
2023/05/03 02:29:11;;;;;;;9.88;2.97;;;;;;;;;;5074876;28;20067;-73
2023/05/03 02:31:37;;;;;;;4.68;2.90;;;;;;;;;;5095224;27;20594;-73
2023/05/03 02:34:03;;;;;;;5.38;2.60;;;;;;;;;;5073738;28;20395;-72
2023/05/03 02:36:29;;;;;;;5.75;2.45;;;;;;;;;;5075233;28;20039;-73
2023/05/03 02:38:56;;;;;;;4.40;2.30;;;;;;;;;;5080022;28;20044;-73
2023/05/03 02:41:22;;;;;;;6.32;2.47;;;;;;;;;;5076156;27;20101;-73
2023/05/03 02:43:48;;;;;;;8.52;2.75;;;;;;;;;;5073882;28;20046;-73
2023/05/03 02:46:14;;;;;;;8.60;2.72;;;;;;;;;;5073159;28;20498;-72
2023/05/03 02:48:40;;;;;;;7.00;2.63;;;;;;;;;;5095104;27;20885;-73
2023/05/03 02:51:06;;;;;;;5.28;2.17;;;;;;;;;;5092852;27;20058;-72
2023/05/03 02:53:32;;;;;;;5.13;2.10;;;;;;;;;;5073439;28;20048;-73
2023/05/03 02:55:58;;;;;;;8.32;2.78;;;;;;;;;;5093429;27;22098;-73
2023/05/03 02:58:24;;;;;;;7.40;2.40;;;;;;;;;;5075675;28;20093;-73
2023/05/03 03:00:51;;;;;;;5.50;1.92;;;;;;;;;;5075991;27;20048;-73
2023/05/03 03:03:17;;;;;;;6.68;2.30;;;;;;;;;;5075059;28;20093;-73
2023/05/03 03:05:43;;;;;;;6.93;2.58;;;;;;;;;;5098887;27;20044;-73
2023/05/03 03:08:09;;;;;;;8.18;2.75;;;;;;;;;;5094780;27;20410;-73
2023/05/03 03:10:35;;;;;;;5.55;2.20;;;;;;;;;;5074163;28;20043;-73
2023/05/03 03:13:02;;;;;;;6.53;2.15;;;;;;;;;;5072435;28;20134;-72
2023/05/03 03:15:29;;;;;;;7.10;2.55;;;;;;;;;;5073935;28;20040;-73
2023/05/03 03:17:57;;;;;;;5.38;2.33;;;;;;;;;;5072056;28;20118;-72
2023/05/03 03:20:23;;;;;;;4.50;2.58;;;;;;;;;;5073321;28;20066;-73
2023/05/03 03:22:49;;;;;;;3.63;1.98;;;;;;;;;;5091298;27;20122;-73
2023/05/03 03:25:15;;;;;;;6.32;2.22;;;;;;;;;;5073549;28;20035;-73
2023/05/03 03:27:41;;;;;;;6.43;2.45;;;;;;;;;;5071314;27;20075;-72
2023/05/03 03:30:09;;;;;;;5.20;2.00;;;;;;;;;;5069373;28;20415;-73
2023/05/03 03:32:35;;;;;;;7.15;2.20;;;;;;;;;;5076860;28;20044;-73
2023/05/03 03:35:01;;;;;;;6.65;2.95;;;;;;;;;;5078293;28;20127;-73
2023/05/03 03:37:27;;;;;;;5.53;2.00;;;;;;;;;;5074011;28;20095;-73
2023/05/03 03:39:53;;;;;;;7.80;2.60;;;;;;;;;;5074117;28;20422;-73
2023/05/03 03:42:22;;;;;;;9.35;2.50;;;;;;;;;;5070688;28;20045;-73
2023/05/03 03:44:48;;;;;;;7.88;2.35;;;;;;;;;;5067360;28;20394;-73
2023/05/03 03:47:14;;;;;;;5.75;1.90;;;;;;;;;;5071928;28;20043;-73
2023/05/03 03:49:40;;;;;;;4.53;2.33;;;;;;;;;;5072815;28;20066;-73
2023/05/03 03:52:06;;;;;;;6.68;2.20;;;;;;;;;;5072517;28;20040;-73
2023/05/03 03:54:34;;;;;;;5.63;2.03;;;;;;;;;;5065526;28;20044;-73
2023/05/03 03:57:01;;;;;;;5.82;2.60;;;;;;;;;;5071034;28;20484;-72
2023/05/03 03:59:28;;;;;;;4.03;2.08;;;;;;;;;;5072636;28;20044;-72
2023/05/03 04:01:54;;;;;;;5.13;2.17;;;;;;;;;;5075213;28;20048;-73
2023/05/03 04:04:20;;;;;;;5.28;2.40;;;;;;;;;;5067735;28;20052;-72
2023/05/03 04:06:46;;;;;;;7.55;2.40;;;;;;;;;;5068685;28;20036;-72
2023/05/03 04:09:13;;;;;;;4.60;2.30;;;;;;;;;;5068965;28;20052;-73
2023/05/03 04:11:39;;;;;;;5.82;2.50;;;;;;;;;;5066703;28;20093;-73
2023/05/03 04:14:06;;;;;;;5.75;2.47;;;;;;;;;;5069606;28;20480;-72
2023/05/03 04:16:32;;;;;;;7.85;2.53;;;;;;;;;;5065964;28;20044;-73
2023/05/03 04:18:58;;;;;;;7.97;2.70;;;;;;;;;;5071721;28;20044;-72
2023/05/03 04:21:24;;;;;;;6.55;2.45;;;;;;;;;;5070023;28;20064;-73
2023/05/03 04:23:51;;;;;;;5.50;2.30;;;;;;;;;;5070439;28;20056;-72
2023/05/03 04:26:17;;;;;;;5.85;2.92;;;;;;;;;;5069245;28;20106;-72
2023/05/03 04:28:44;;;;;;;7.40;2.55;;;;;;;;;;5075717;28;20043;-73
2023/05/03 04:31:10;;;;;;;5.38;2.22;;;;;;;;;;5072838;28;20108;-73
2023/05/03 04:33:36;;;;;;;8.20;2.50;;;;;;;;;;5073945;28;20047;-69
2023/05/03 04:36:03;;;;;;;9.68;3.00;;;;;;;;;;5052341;28;20494;-73
2023/05/03 04:38:29;;;;;;;9.60;2.95;;;;;;;;;;5068149;28;20072;-73
2023/05/03 04:40:57;;;;;;;5.85;2.80;;;;;;;;;;5076720;28;20040;-73
2023/05/03 04:43:23;;;;;;;6.70;2.45;;;;;;;;;;5080283;28;20474;-73
2023/05/03 04:45:51;;;;;;;6.13;2.75;;;;;;;;;;5080987;28;20047;-73
2023/05/03 04:48:17;;;;;;;6.55;2.75;;;;;;;;;;5096979;27;20214;-73
2023/05/03 04:50:44;;;;;;;7.13;2.88;;;;;;;;;;5076385;28;20040;-73
2023/05/03 04:53:10;;;;;;;11.35;3.00;;;;;;;;;;5078843;28;20144;-73
2023/05/03 04:55:36;;;;;;;6.10;2.80;;;;;;;;;;5076275;28;20113;-73
2023/05/03 04:58:02;;;;;;;5.22;2.50;;;;;;;;;;5078420;28;20367;-73
2023/05/03 05:00:29;;;;;;;6.38;2.67;;;;;;;;;;5098059;27;20490;-74
2023/05/03 05:02:57;;;;;;;7.30;2.60;;;;;;;;;;5092299;27;20185;-73
2023/05/03 05:05:23;;;;;;;8.25;2.40;;;;;;;;;;5075275;28;21378;-73
2023/05/03 05:07:49;;;;;;;8.32;3.83;;;;;;;;;;5076333;28;20043;-73
2023/05/03 05:10:15;;;;;;;7.53;2.75;;;;;;;;;;5076119;28;20043;-73
2023/05/03 05:12:42;;;;;;;8.18;2.67;;;;;;;;;;5078976;28;20105;-73
2023/05/03 05:15:08;;;;;;;7.00;2.25;;;;;;;;;;5077753;28;20050;-73
2023/05/03 05:17:34;;;;;;;6.78;2.53;;;;;;;;;;5077429;28;20054;-73
2023/05/03 05:20:00;;;;;;;5.30;2.45;;;;;;;;;;5074559;27;20128;-73
2023/05/03 05:22:26;;;;;;;7.75;2.60;;;;;;;;;;5055882;28;20130;-72
2023/05/03 05:24:53;;;;;;;7.00;2.63;;;;;;;;;;5072889;28;20043;-72
2023/05/03 05:27:19;;;;;;;6.50;2.40;;;;;;;;;;5071867;28;20059;-72
2023/05/03 05:29:45;;;;;;;9.45;2.70;;;;;;;;;;5068661;28;20063;-72
2023/05/03 05:32:11;;;;;;;5.70;2.47;;;;;;;;;;5097339;28;20052;-72
2023/05/03 05:34:37;;;;;;;5.05;2.80;;;;;;;;;;5074546;28;20048;-72
2023/05/03 05:37:04;;;;;;;4.20;2.22;;;;;;;;;;5068896;28;20657;-75
2023/05/03 05:39:30;;;;;;;13.60;2.95;;;;;;;;;;5073521;28;21457;-75
2023/05/03 05:41:56;;;;;;;9.65;2.80;;;;;;;;;;5070744;28;20032;-76
2023/05/03 05:44:22;;;;;;;6.97;2.75;;;;;;;;;;5068008;28;20043;-75
2023/05/03 05:46:49;;;;;;;7.72;3.10;;;;;;;;;;5070119;28;20043;-75
2023/05/03 05:49:15;;;;;;;11.25;2.92;;;;;;;;;;5076463;28;20125;-77
2023/05/03 05:51:41;;;;;;;12.82;2.90;;;;;;;;;;5069086;28;20336;-80
2023/05/03 05:54:07;;;;;;;7.88;2.80;;;;;;;;;;5068566;28;20036;-75
2023/05/03 05:56:33;;;;;;;6.68;2.50;;;;;;;;;;5069946;28;21874;-75
2023/05/03 05:58:59;;;;;;;8.98;2.72;;;;;;;;;;5086314;28;20375;-75
2023/05/03 06:01:30;;;;;;;6.90;3.10;;;;;;;;;;5088103;28;20058;-75
2023/05/03 06:03:56;;;;;;;9.38;2.67;;;;;;;;;;5071190;28;20051;-71
2023/05/03 06:06:22;;;;;;;7.60;2.58;;;;;;;;;;5094552;28;20486;-71
2023/05/03 06:08:50;;;;;;;6.70;2.92;;;;;;;;;;5076389;28;20063;-70
2023/05/03 06:11:17;;;;;;;7.65;2.97;;;;;;;;;;5085357;28;20042;-69
2023/05/03 06:13:43;;;;;;;9.55;3.33;;;;;;;;;;5067599;28;20048;-69
2023/05/03 06:16:10;;;;;;;7.05;2.85;;;;;;;;;;5071204;28;20487;-69
2023/05/03 06:18:37;;;;;;;6.18;2.50;;;;;;;;;;5094440;28;20348;-69
2023/05/03 06:21:04;;;;;;;8.32;2.60;;;;;;;;;;5077702;28;20601;-69
2023/05/03 06:23:31;;;;;;;6.00;2.28;;;;;;;;;;5077244;28;20119;-69
2023/05/03 06:25:57;;;;;;;7.03;2.05;;;;;;;;;;5076992;28;20409;-69
2023/05/03 06:28:23;;;;;;;7.15;2.83;;;;;;;;;;5076294;28;20043;-68
2023/05/03 06:30:50;;;;;;;6.43;2.80;;;;;;;;;;5074358;28;20140;-68
2023/05/03 06:33:16;;;;;;;4.28;1.95;;;;;;;;;;5076199;28;20765;-69
2023/05/03 06:35:42;;;;;;;10.38;2.67;;;;;;;;;;5076174;28;20043;-68
2023/05/03 06:38:08;;;;;;;8.40;1.75;;;;;;;;;;5081430;28;20139;-69
2023/05/03 06:40:35;;;;;;;3.88;1.10;;;;;;;;;;5075118;28;20036;-67
2023/05/03 06:43:01;;;;;;;6.75;1.95;;;;;;;;;;5065993;28;20047;-68
2023/05/03 06:45:27;;;;;;;4.35;1.23;;;;;;;;;;5067152;28;20189;-68
2023/05/03 06:47:53;;;;;;;7.32;1.55;;;;;;;;;;5060182;28;20052;-69
2023/05/03 06:50:21;;;;;;;4.35;1.35;;;;;;;;;;5089281;28;20451;-69
2023/05/03 06:52:47;;;;;;;5.60;1.40;;;;;;;;;;5068999;28;20055;-68
2023/05/03 06:55:13;;;;;;;5.00;1.40;;;;;;;;;;5068225;28;20050;-68
2023/05/03 06:57:41;;;;;;;5.57;1.60;;;;;;;;;;5074074;28;20036;-69
2023/05/03 07:00:08;;;;;;;8.30;1.50;;;;;;;;;;5097081;28;20047;-69
2023/05/03 07:02:34;;;;;;;6.60;1.85;;;;;;;;;;5072676;28;20051;-69
2023/05/03 07:05:00;;;;;;;3.05;1.25;;;;;;;;;;5091802;27;20123;-69
2023/05/03 07:07:26;;;;;;;9.40;1.70;;;;;;;;;;5070237;28;20048;-68
2023/05/03 07:09:53;;;;;;;3.65;1.45;;;;;;;;;;5074082;28;20044;-69
2023/05/03 07:12:19;;;;;;;5.95;1.63;;;;;;;;;;5090951;27;20087;-69
2023/05/03 07:14:46;;;;;;;4.07;1.30;;;;;;;;;;5071020;28;20486;-69
2023/05/03 07:17:12;;;;;;;4.45;1.40;;;;;;;;;;5069787;28;20036;-69
2023/05/03 07:19:38;;;;;;;7.07;1.60;;;;;;;;;;5095667;27;20052;-68
2023/05/03 07:22:04;;;;;;;7.40;1.73;;;;;;;;;;5074546;28;20120;-68
2023/05/03 07:24:30;;;;;;;7.15;1.50;;;;;;;;;;5095265;28;20473;-68
2023/05/03 07:26:57;;;;;;;5.13;1.50;;;;;;;;;;5074177;28;20479;-68
2023/05/03 07:29:23;;;;;;;7.50;1.33;;;;;;;;;;5071837;27;20059;-68
2023/05/03 07:31:49;;;;;;;6.07;1.52;;;;;;;;;;5074366;28;20063;-68
2023/05/03 07:34:16;;;;;;;8.93;1.80;;;;;;;;;;5074351;27;20059;-68
2023/05/03 07:36:42;;;;;;;6.60;1.75;;;;;;;;;;5073480;28;20119;-67
2023/05/03 07:39:08;;;;;;;5.00;1.75;;;;;;;;;;5076395;28;20131;-80
2023/05/03 07:41:34;;;;;;;5.25;1.85;;;;;;;;;;5081145;28;20146;-67
2023/05/03 07:44:00;;;;;;;6.63;1.75;;;;;;;;;;5098771;28;20360;-67
2023/05/03 07:46:26;;;;;;;6.97;2.00;;;;;;;;;;5097746;27;20039;-67
2023/05/03 07:48:52;;;;;;;4.53;1.95;;;;;;;;;;5076693;28;20053;-67
2023/05/03 07:51:19;;;;;;;7.45;1.15;;;;;;;;;;5098902;28;20035;-72
2023/05/03 07:53:45;;;;;;;6.38;1.17;;;;;;;;;;5073917;27;21296;-72
2023/05/03 07:56:12;;;;;;;4.95;1.40;;;;;;;;;;5078668;28;20040;-72
2023/05/03 07:58:38;;;;;;;5.30;1.63;;;;;;;;;;5076963;28;20056;-72
2023/05/03 08:01:04;;;;;;;6.95;2.05;;;;;;;;;;5079869;28;20048;-72
2023/05/03 08:03:30;;;;;;;4.70;1.67;;;;;;;;;;5099641;28;20035;-72
2023/05/03 08:05:56;;;;;;;6.82;1.80;;;;;;;;;;5070415;28;20499;-72
2023/05/03 08:08:23;;;;;;;7.03;1.85;;;;;;;;;;5090472;28;20044;-72
2023/05/03 08:10:51;;;;;;;4.93;1.40;;;;;;;;;;5070832;28;20946;-72
2023/05/03 08:13:17;;;;;;;10.40;1.83;;;;;;;;;;5071344;28;20055;-72
2023/05/03 08:15:44;;;;;;;7.80;1.70;;;;;;;;;;5074151;28;20043;-72
2023/05/03 08:18:10;;;;;;;7.20;2.15;;;;;;;;;;5077760;28;20521;-72
2023/05/03 08:20:38;;;;;;;4.22;1.60;;;;;;;;;;5074524;28;20400;-72
2023/05/03 08:23:04;;;;;;;7.85;1.67;;;;;;;;;;5094595;27;20092;-72
2023/05/03 08:25:31;;;;;;;7.55;2.20;;;;;;;;;;5092045;28;20069;-72
2023/05/03 08:27:57;;;;;;;7.40;2.10;;;;;;;;;;5091274;28;20122;-72
2023/05/03 08:30:24;;;;;;;6.30;1.80;;;;;;;;;;5071029;28;20062;-72
2023/05/03 08:32:50;;;;;;;6.15;1.60;;;;;;;;;;5066963;28;20047;-72
2023/05/03 08:35:17;;;;;;;4.63;1.40;;;;;;;;;;5069188;28;20056;-72
2023/05/03 08:37:44;;;;;;;11.05;1.60;;;;;;;;;;5067555;28;20533;-72
2023/05/03 08:40:13;;;;;;;5.78;1.40;;;;;;;;;;5073151;28;20394;-72
2023/05/03 08:42:40;;;;;;;4.40;1.90;;;;;;;;;;5074843;28;20109;-72
2023/05/03 08:45:08;;;;;;;4.90;1.70;;;;;;;;;;5050140;28;20052;-72
2023/05/03 08:47:37;;;;;;;7.47;2.03;;;;;;;;;;5054462;28;20041;-72
2023/05/03 08:50:04;;;;;;;10.45;2.80;;;;;;;;;;5070610;28;20056;-72
2023/05/03 08:52:30;;;;;;;4.72;1.35;;;;;;;;;;5067544;28;20523;-72
2023/05/03 08:54:56;;;;;;;5.20;1.60;;;;;;;;;;5067934;28;20048;-72
2023/05/03 08:57:24;;;;;;;5.25;1.48;;;;;;;;;;5071477;28;21162;-72
2023/05/03 08:59:53;;;;;;;5.63;1.38;;;;;;;;;;5067883;28;20058;-72
2023/05/03 09:02:20;;;;;;;5.82;1.90;;;;;;;;;;5069628;28;20109;-72
2023/05/03 09:04:46;;;;;;;5.60;1.40;;;;;;;;;;5067950;28;20101;-72
2023/05/03 09:07:14;;;;;;;8.75;1.52;;;;;;;;;;5070375;28;20048;-72
2023/05/03 09:09:42;;;;;;;8.18;1.70;;;;;;;;;;5071008;28;20164;-72
2023/05/03 09:12:08;;;;;;;7.85;1.65;;;;;;;;;;5068765;28;20057;-72
2023/05/03 09:14:44;;;;;;;5.05;1.60;;;;;;;;;;5070594;28;20044;-72
2023/05/03 09:17:15;;;;;;;7.32;1.33;;;;;;;;;;5073025;28;20368;-72
2023/05/03 09:19:53;;;;;;;4.30;1.38;;;;;;;;;;5072802;28;20368;-72
2023/05/03 09:22:20;;;;;;;5.40;1.30;;;;;;;;;;5070899;28;20041;-72
2023/05/03 09:24:51;;;;;;;4.55;1.17;;;;;;;;;;5072388;28;20122;-72
2023/05/03 09:27:20;;;;;;;4.88;1.65;;;;;;;;;;5072061;28;20053;-72
2023/05/03 09:29:47;;;;;;;5.57;1.42;;;;;;;;;;5086177;27;20073;-72
2023/05/03 09:32:13;;;;;;;4.88;1.75;;;;;;;;;;5092204;28;20050;-72
2023/05/03 09:34:39;;;;;;;6.50;1.80;;;;;;;;;;5072319;28;20070;-72
2023/05/03 09:37:06;;;;;;;7.68;1.55;;;;;;;;;;5070403;28;20490;-72
2023/05/03 09:39:33;;;;;;;3.40;1.20;;;;;;;;;;5069760;28;20059;-72
2023/05/03 09:42:09;;;;;;;7.93;1.55;;;;;;;;;;5069496;28;20075;-72
2023/05/03 09:44:41;;;;;;;4.75;1.40;;;;;;;;;;5075689;28;20063;-72
2023/05/03 09:47:07;;;;;;;9.68;2.50;;;;;;;;;;5072350;28;20075;-72
2023/05/03 09:49:35;;;;;;;7.25;1.20;;;;;;;;;;5072997;28;20483;-72
2023/05/03 09:52:02;;;;;;;9.13;2.20;;;;;;;;;;5073613;28;20044;-72
2023/05/03 09:54:30;;;;;;;10.25;2.20;;;;;;;;;;5071790;28;20049;-72
2023/05/03 09:56:56;;;;;;;5.28;1.30;;;;;;;;;;5068865;28;20093;-72
2023/05/03 09:59:22;;;;;;;7.72;1.75;;;;;;;;;;5086331;28;20043;-72
2023/05/03 10:01:50;;;;;;;9.13;2.45;;;;;;;;;;5070606;28;20040;-72
2023/05/03 10:04:19;;;;;;;6.13;1.73;;;;;;;;;;5070926;28;20565;-72
2023/05/03 10:06:48;;;;;;;7.15;1.60;;;;;;;;;;5070148;28;21677;-72
2023/05/03 10:09:19;;;;;;;4.88;1.50;;;;;;;;;;5068202;28;20040;-72
2023/05/03 10:11:48;;;;;;;8.23;1.77;;;;;;;;;;5087641;28;20052;-72
2023/05/03 10:14:14;;;;;;;8.38;1.73;;;;;;;;;;5072612;28;20050;-72
2023/05/03 10:16:44;;;;;;;9.63;2.45;;;;;;;;;;5080177;28;20040;-72
2023/05/03 10:19:14;;;;;;;7.10;1.77;;;;;;;;;;5072459;28;20056;-72
2023/05/03 10:21:54;;;;;;;7.55;1.30;;;;;;;;;;5093315;28;20052;-72
2023/05/03 10:24:21;;;;;;;4.15;1.30;;;;;;;;;;5069647;28;20418;-72
2023/05/03 10:26:47;;;;;;;5.43;1.25;;;;;;;;;;5069043;28;20044;-72
2023/05/03 10:29:33;;;;;;;6.85;2.33;;;;;;;;;;5090946;28;20485;-72
2023/05/03 10:32:25;;;;;;;6.80;1.55;;;;;;;;;;5089162;28;20058;-72
2023/05/03 10:34:57;;;;;;;8.02;2.03;;;;;;;;;;5073502;28;20043;-72
2023/05/03 10:37:25;;;;;;;5.10;1.63;;;;;;;;;;5096154;27;20132;-72
2023/05/03 10:39:52;;;;;;;5.03;1.58;;;;;;;;;;5073070;28;20154;-72
2023/05/03 10:42:21;;;;;;;5.22;2.35;;;;;;;;;;5074374;27;20054;-72
2023/05/03 10:44:47;;;;;;;8.73;1.70;;;;;;;;;;5089392;28;20047;-72
2023/05/03 10:47:14;;;;;;;4.18;1.50;;;;;;;;;;5077034;28;20064;-72
2023/05/03 10:49:40;;;;;;;4.20;1.40;;;;;;;;;;5080081;28;20080;-72
2023/05/03 10:52:25;;;;;;;7.13;1.65;;;;;;;;;;5082162;28;20140;-74
2023/05/03 10:54:51;;;;;;;5.72;1.63;;;;;;;;;;5079155;28;20043;-73
2023/05/03 10:57:17;;;;;;;5.75;1.77;;;;;;;;;;5078913;28;20047;-73
2023/05/03 10:59:48;;;;;;;5.28;1.55;;;;;;;;;;5075099;28;20485;-73
2023/05/03 11:02:17;;;;;;;7.50;1.60;;;;;;;;;;5077069;28;20120;-73
2023/05/03 11:04:44;;;;;;;4.20;1.48;;;;;;;;;;5076943;27;20244;-73
2023/05/03 11:07:18;;;;;;;5.30;1.42;;;;;;;;;;5072093;27;20483;-73
2023/05/03 11:09:45;;;;;;;5.78;1.27;;;;;;;;;;5073808;28;20036;-73
2023/05/03 11:12:11;;;;;;;6.45;1.42;;;;;;;;;;5074439;28;20043;-73
2023/05/03 11:14:38;;;;;;;7.05;1.58;;;;;;;;;;5070479;27;20120;-73
2023/05/03 11:17:05;;;;;;;5.30;1.48;;;;;;;;;;5073406;28;20127;-73
2023/05/03 11:19:32;;;;;;;4.60;1.40;;;;;;;;;;5078716;28;20052;-73
2023/05/03 11:21:58;;;;;;;4.15;1.40;;;;;;;;;;5090496;28;20123;-73
2023/05/03 11:24:24;;;;;;;8.02;1.35;;;;;;;;;;5075776;27;20133;-70
2023/05/03 11:26:51;;;;;;;7.18;1.83;;;;;;;;;;5071625;28;20146;-69
2023/05/03 11:29:17;;;;;;;5.85;1.10;;;;;;;;;;5074000;27;20071;-68
2023/05/03 11:31:44;;;;;;;9.80;2.65;;;;;;;;;;5073530;28;20248;-68
2023/05/03 11:34:11;;;;;;;5.75;1.20;;;;;;;;;;5078746;28;20413;-68
2023/05/03 11:36:38;;;;;;;4.07;1.17;;;;;;;;;;5056485;27;20056;-68
2023/05/03 11:39:04;;;;;;;5.93;1.58;;;;;;;;;;5071185;28;20491;-67
2023/05/03 11:41:31;;;;;;;7.13;1.70;;;;;;;;;;5072378;28;20395;-67
2023/05/03 11:43:57;;;;;;;5.05;1.50;;;;;;;;;;5070998;28;20040;-67
2023/05/03 11:46:25;;;;;;;10.90;1.40;;;;;;;;;;5070108;28;20044;-67
2023/05/03 11:48:51;;;;;;;5.03;1.20;;;;;;;;;;5079628;27;20052;-67
2023/05/03 11:51:22;;;;;;;6.05;1.27;;;;;;;;;;5092587;27;20036;-67
2023/05/03 11:53:48;;;;;;;6.50;1.55;;;;;;;;;;5093355;27;20051;-67
2023/05/03 11:56:17;;;;;;;8.15;1.80;;;;;;;;;;5074530;28;20075;-68
2023/05/03 11:58:51;;;;;;;4.43;1.20;;;;;;;;;;5073185;28;20047;-68
2023/05/03 12:01:17;;;;;;;3.92;1.20;;;;;;;;;;5073463;27;20122;-68
2023/05/03 12:03:46;;;;;;;8.50;1.83;;;;;;;;;;5060299;28;20126;-67
2023/05/03 12:06:12;;;;;;;3.80;1.65;;;;;;;;;;5079527;28;20047;-68
2023/05/03 12:08:39;;;;;;;4.15;1.35;;;;;;;;;;5073391;28;20059;-68
2023/05/03 12:11:05;;;;;;;6.15;1.50;;;;;;;;;;5077111;28;20052;-67
2023/05/03 12:13:34;;;;;;;4.03;1.45;;;;;;;;;;5075119;28;20044;-67
2023/05/03 12:16:01;;;;;;;6.45;1.88;;;;;;;;;;5076947;28;20048;-68
2023/05/03 12:18:27;;;;;;;4.68;1.55;;;;;;;;;;5088830;28;20483;-67
2023/05/03 12:20:56;;;;;;;8.05;2.35;;;;;;;;;;5095616;28;20047;-68
2023/05/03 12:23:23;;;;;;;7.47;1.38;;;;;;;;;;5074227;28;20483;-67
2023/05/03 12:25:50;;;;;;;3.17;1.10;;;;;;;;;;5094665;28;20043;-67
2023/05/03 12:28:17;;;;;;;6.63;1.30;;;;;;;;;;5094595;28;20078;-67
2023/05/03 12:30:43;;;;;;;5.80;1.42;;;;;;;;;;5093957;28;20100;-68
2023/05/03 12:33:09;;;;;;;4.78;1.60;;;;;;;;;;5092655;28;20039;-67
2023/05/03 12:35:36;;;;;;;6.05;1.70;;;;;;;;;;5095028;27;20462;-68
2023/05/03 12:38:03;;;;;;;3.80;1.10;;;;;;;;;;5071200;27;20100;-67
2023/05/03 12:40:29;;;;;;;5.38;1.60;;;;;;;;;;5070146;28;20498;-67
2023/05/03 12:42:55;;;;;;;5.68;1.50;;;;;;;;;;5070204;28;20044;-67
2023/05/03 12:45:21;;;;;;;8.43;1.40;;;;;;;;;;5068338;28;20043;-72
2023/05/03 12:47:47;;;;;;;7.05;2.15;;;;;;;;;;5073317;28;20129;-69
2023/05/03 12:50:13;;;;;;;6.18;1.35;;;;;;;;;;5072243;27;20055;-68
2023/05/03 12:52:40;;;;;;;6.45;1.65;;;;;;;;;;5096491;27;20565;-68
2023/05/03 12:55:06;;;;;;;4.78;1.33;;;;;;;;;;5092534;27;20060;-68
2023/05/03 12:57:33;;;;;;;4.80;1.42;;;;;;;;;;5073004;28;21188;-70
2023/05/03 12:59:59;;;;;;;5.18;1.23;;;;;;;;;;5087199;27;20044;-68
2023/05/03 13:02:25;;;;;;;4.55;1.48;;;;;;;;;;5089348;27;20055;-67
2023/05/03 13:04:55;;;;;;;7.47;1.48;;;;;;;;;;5090989;28;20068;-67
2023/05/03 13:07:23;;;;;;;3.88;1.15;;;;;;;;;;5087532;27;20150;-68
2023/05/03 13:09:49;;;;;;;5.15;1.30;;;;;;;;;;5092866;27;20113;-67
2023/05/03 13:12:19;;;;;;;5.07;1.20;;;;;;;;;;5070803;28;20055;-69
2023/05/03 13:14:46;;;;;;;5.50;1.70;;;;;;;;;;5089733;28;20047;-69
2023/05/03 13:17:12;;;;;;;4.22;1.30;;;;;;;;;;5087947;28;20051;-68
2023/05/03 13:19:40;;;;;;;3.70;1.20;;;;;;;;;;5088690;27;20043;-72
2023/05/03 13:22:07;;;;;;;5.93;1.77;;;;;;;;;;5094565;28;20044;-70
2023/05/03 13:24:33;;;;;;;4.45;1.52;;;;;;;;;;5070181;28;20079;-68
2023/05/03 13:26:59;;;;;;;6.43;1.70;;;;;;;;;;5097640;27;20067;-67
2023/05/03 13:29:25;;;;;;;3.22;1.13;;;;;;;;;;5070420;28;20525;-68
2023/05/03 13:31:52;;;;;;;14.38;1.83;;;;;;;;;;5089555;28;20171;-74
2023/05/03 13:34:18;;;;;;;4.25;1.30;;;;;;;;;;5069774;28;20132;-68
2023/05/03 13:36:44;;;;;;;4.63;1.52;;;;;;;;;;5092397;27;20039;-68
2023/05/03 13:39:10;;;;;;;3.95;1.15;;;;;;;;;;5091358;27;20055;-67
2023/05/03 13:41:39;;;;;;;6.28;1.20;;;;;;;;;;5071045;28;20055;-68
2023/05/03 13:44:05;;;;;;;3.95;1.13;;;;;;;;;;5067955;28;20055;-68
2023/05/03 13:46:35;;;;;;;5.45;1.50;;;;;;;;;;5069846;28;20062;-67
2023/05/03 13:49:01;;;;;;;3.75;1.00;;;;;;;;;;5072578;28;20044;-68
2023/05/03 13:51:27;;;;;;;6.03;1.23;;;;;;;;;;5069229;27;20048;-68
2023/05/03 13:53:54;;;;;;;3.10;0.93;;;;;;;;;;5092728;27;20043;-68
2023/05/03 13:56:20;;;;;;;5.32;1.40;;;;;;;;;;5071917;28;20483;-68
2023/05/03 13:58:46;;;;;;;2.38;1.00;;;;;;;;;;5072917;28;20514;-68
2023/05/03 14:01:12;;;;;;;4.60;1.80;;;;;;;;;;5086365;27;20048;-68
2023/05/03 14:03:38;;;;;;;4.60;1.20;;;;;;;;;;5087801;27;20495;-67
2023/05/03 14:06:07;;;;;;;3.03;1.20;;;;;;;;;;5089222;27;20389;-67
2023/05/03 14:08:33;;;;;;;5.35;1.42;;;;;;;;;;5090012;28;20106;-68
2023/05/03 14:10:59;;;;;;;3.83;1.23;;;;;;;;;;5087057;28;20109;-68
2023/05/03 14:13:25;;;;;;;5.75;1.40;;;;;;;;;;5071316;28;20047;-68
2023/05/03 14:15:51;;;;;;;5.43;1.40;;;;;;;;;;5067508;28;20078;-68
2023/05/03 14:18:17;;;;;;;3.35;1.20;;;;;;;;;;5070468;28;20575;-68
2023/05/03 14:20:44;;;;;;;4.57;1.48;;;;;;;;;;5067903;28;20483;-67
2023/05/03 14:23:10;;;;;;;4.63;1.48;;;;;;;;;;5072170;28;20138;-68
2023/05/03 14:25:36;;;;;;;4.88;1.38;;;;;;;;;;5084365;28;20055;-68
2023/05/03 14:28:02;;;;;;;7.00;1.48;;;;;;;;;;5087208;28;20040;-67
2023/05/03 14:30:29;;;;;;;5.63;1.67;;;;;;;;;;5069014;28;20098;-67
2023/05/03 14:32:55;;;;;;;6.55;1.30;;;;;;;;;;5068525;28;20051;-68
2023/05/03 14:35:21;;;;;;;10.85;2.00;;;;;;;;;;5073747;28;20043;-68
2023/05/03 14:37:48;;;;;;;3.65;1.70;;;;;;;;;;5070035;28;20123;-68
2023/05/03 14:40:14;;;;;;;4.50;1.45;;;;;;;;;;5088788;28;20075;-67
2023/05/03 14:42:41;;;;;;;6.20;2.13;;;;;;;;;;5086536;28;20455;-68